الصفحة الرئيسية
METAR-TAF:

METAR-TAF

مطار :

مطار محج قلعة الدولي

محج قلعة, روسيا

دائرة عرض: 42-49-01N, خط طول: 047-39-08E, ارتفاع: 4 متر

مراقبة الطقس الحالي

تاريخ ووقت الإصدار 33 دقيقة قبل الساعة 13:30UTC
ريح 10 عقدة من الجنوب/الجنوب الشرقي
درجة الحرارة 31°درجة مئوية
الرطوبة 43%
ضغط 1010 hPa
الرؤية 10 كم أو أكثر

METAR: URML 171330Z 15005MPS 9999 NSC 31/17 Q1010 R14/01//70 NOSIG RMK QFE758/1010

زمن: 17:03 (14:03 UTC)

توقعات

تاريخ ووقت الإصدار 3ساعات و 3 دقيقة قبل الساعة 11:00UTC
التوقعات صالحة من17 الساعة 12 UTC إلى 17 الساعة 21 UTC
ريح 10 عقدة من الجنوب الشرقي تتزايد حتى 19 عقدة
الرؤية: 6000 متر
غيوم متفرقة على ارتفاع 1700 قدم
أصبح
من 17 الساعة 14 UTC إلى 17 الساعة 17 UTC
ريح 6 عقدة من الجنوب تتزايد حتى 16 عقدة

TAF: URML 171100Z 1712/1721 13005G10MPS 6000 SCT017 BECMG 1714/1717 17003G08MPS

أرصاد الطقس والتوقعات من أكثر من 4000 مطار (تقارير الطقس للمطار METAR والتنبؤ بالطقس بالمطارTAF).

المحطات المتاحة هي النقط الصفراء والحمراء على الخريطة.

حرك المؤشر فوق النقطة لمعرفة اسم المحطة.

ثم انقر لمعرفة أرصاد وتوقعات الطقس.

لتغيير الخارطة: اضغط على الأزرار الخضراء مع رمز الصليب الأسود للتكبير. على الزر الأخضر مع شرطة للتصغير، أو على الأسهم الخضراء للخرائط المجاورة.


METAR-TAF: